createdAt,value
2019-04-20T00:01:50.552Z,99.60
2019-04-20T00:04:25.031Z,99.70
2019-04-20T00:06:53.100Z,99.90
2019-04-20T00:09:28.665Z,99.90
2019-04-20T00:12:02.769Z,99.90
2019-04-20T00:14:27.683Z,99.90
2019-04-20T00:16:54.696Z,99.90
2019-04-20T00:19:32.219Z,99.90
2019-04-20T00:22:03.033Z,99.90
2019-04-20T00:24:35.892Z,99.90
2019-04-20T00:27:25.714Z,99.90
2019-04-20T00:29:49.583Z,99.90
2019-04-20T00:32:14.400Z,99.90
2019-04-20T00:34:39.972Z,99.90
2019-04-20T00:37:08.822Z,99.90
2019-04-20T00:39:38.332Z,99.90
2019-04-20T00:42:11.141Z,99.90
2019-04-20T00:44:42.164Z,99.90
2019-04-20T00:47:21.890Z,99.90
2019-04-20T00:49:55.171Z,99.90
2019-04-20T00:52:27.411Z,99.90
2019-04-20T00:54:43.112Z,99.90
2019-04-20T00:57:22.307Z,99.90
2019-04-20T01:00:09.376Z,99.90
2019-04-20T01:02:29.656Z,99.90
2019-04-20T01:05:04.145Z,99.90
2019-04-20T01:07:35.133Z,99.90
2019-04-20T01:10:04.951Z,99.90
2019-04-20T01:12:36.553Z,99.90
2019-04-20T01:15:09.941Z,99.90
2019-04-20T01:17:41.817Z,99.90
2019-04-20T01:20:09.783Z,99.90
2019-04-20T01:22:46.862Z,99.90
2019-04-20T01:25:19.526Z,99.90
2019-04-20T01:28:02.214Z,99.90
2019-04-20T01:30:20.998Z,99.90
2019-04-20T01:33:12.661Z,99.90
2019-04-20T01:35:31.055Z,99.90
2019-04-20T01:38:00.213Z,99.90
2019-04-20T01:40:16.986Z,99.90
2019-04-20T01:42:46.754Z,99.90
2019-04-20T01:45:23.566Z,99.90
2019-04-20T01:47:51.311Z,99.90
2019-04-20T01:50:23.922Z,99.90
2019-04-20T01:52:58.191Z,99.90
2019-04-20T01:55:38.627Z,99.90
2019-04-20T01:58:17.661Z,99.90
2019-04-20T02:00:48.059Z,99.90
2019-04-20T02:03:40.297Z,99.90
2019-04-20T02:06:12.718Z,99.90
2019-04-20T02:08:37.930Z,99.90
2019-04-20T02:11:08.128Z,99.90
2019-04-20T02:13:44.451Z,99.90
2019-04-20T02:16:15.780Z,99.90
2019-04-20T02:18:51.649Z,99.90
2019-04-20T02:21:28.699Z,99.90
2019-04-20T02:23:50.970Z,99.90
2019-04-20T02:26:12.880Z,99.90
2019-04-20T02:29:05.972Z,99.90
2019-04-20T02:32:01.524Z,99.90
2019-04-20T02:34:23.828Z,99.90
2019-04-20T02:37:09.547Z,99.90
2019-04-20T02:39:37.551Z,99.90
2019-04-20T02:41:57.919Z,99.90
2019-04-20T02:44:42.340Z,99.90
2019-04-20T02:47:07.904Z,99.90
2019-04-20T02:52:09.902Z,99.90
2019-04-20T02:54:58.502Z,99.90
2019-04-20T03:01:55.397Z,99.90
2019-04-20T03:04:20.343Z,99.90
2019-04-20T03:06:55.887Z,99.90
2019-04-20T03:09:33.105Z,99.90
2019-04-20T03:12:06.156Z,99.90
2019-04-20T03:14:26.474Z,99.90
2019-04-20T03:17:03.283Z,99.90
2019-04-20T03:19:29.984Z,99.90
2019-04-20T03:22:10.437Z,99.90
2019-04-20T03:24:38.698Z,99.90
2019-04-20T03:27:07.472Z,99.90
2019-04-20T03:29:56.734Z,99.90
2019-04-20T03:35:20.610Z,99.90
2019-04-20T03:37:52.661Z,99.90
2019-04-20T03:40:08.295Z,99.90
2019-04-20T03:42:26.601Z,99.90
2019-04-20T03:45:00.578Z,99.90
2019-04-20T03:47:38.394Z,99.90
2019-04-20T03:50:18.078Z,99.90
2019-04-20T03:53:05.708Z,99.90
2019-04-20T03:55:51.615Z,99.90
2019-04-20T03:58:42.360Z,99.90
2019-04-20T04:01:43.091Z,99.90
2019-04-20T04:04:21.419Z,99.90
2019-04-20T04:06:26.268Z,99.90
2019-04-20T04:09:02.763Z,99.90
2019-04-20T04:11:35.286Z,99.90
2019-04-20T04:13:50.307Z,99.90
2019-04-20T04:16:21.956Z,99.90
2019-04-20T04:19:02.462Z,99.90
2019-04-20T04:21:36.960Z,99.90
2019-04-20T04:24:05.582Z,99.90
2019-04-20T04:26:41.761Z,99.90
2019-04-20T04:29:22.756Z,99.90
2019-04-20T04:31:50.744Z,99.90
2019-04-20T04:34:12.228Z,99.90
2019-04-20T04:36:51.158Z,99.90
2019-04-20T04:39:24.137Z,99.90
2019-04-20T04:41:52.298Z,99.90
2019-04-20T04:44:14.578Z,99.90
2019-04-20T04:46:33.987Z,99.90
2019-04-20T04:49:09.570Z,99.90
2019-04-20T04:51:42.610Z,99.90
2019-04-20T04:54:13.830Z,99.90
2019-04-20T04:56:33.643Z,99.90
2019-04-20T04:59:02.933Z,99.90
2019-04-20T05:01:35.308Z,99.90
2019-04-20T05:06:52.179Z,99.90
2019-04-20T05:09:10.387Z,99.90
2019-04-20T05:11:38.482Z,99.90
2019-04-20T05:14:12.942Z,99.90
2019-04-20T05:16:54.581Z,99.90
2019-04-20T05:19:35.664Z,99.90
2019-04-20T05:22:09.754Z,99.90
2019-04-20T05:24:48.435Z,99.90
2019-04-20T05:27:51.051Z,99.90
2019-04-20T05:30:05.567Z,99.90
2019-04-20T05:32:44.881Z,99.90
2019-04-20T05:35:27.180Z,99.90
2019-04-20T05:40:32.602Z,99.90
2019-04-20T05:43:07.781Z,99.90
2019-04-20T05:45:28.821Z,99.90
2019-04-20T05:48:02.420Z,99.90
2019-04-20T05:50:36.519Z,99.90
2019-04-20T05:53:14.426Z,99.90
2019-04-20T05:55:40.206Z,99.90
2019-04-20T05:58:16.253Z,99.90
2019-04-20T06:00:51.221Z,99.90
2019-04-20T06:03:15.207Z,99.90
2019-04-20T06:05:52.486Z,99.90
2019-04-20T06:08:26.396Z,99.90
2019-04-20T06:10:52.217Z,99.90
2019-04-20T06:13:32.625Z,99.90
2019-04-20T06:16:18.663Z,99.90
2019-04-20T06:19:06.354Z,99.80
2019-04-20T06:21:39.460Z,98.90
2019-04-20T06:24:08.522Z,98.70
2019-04-20T06:26:54.031Z,97.90
2019-04-20T06:29:22.531Z,97.90
2019-04-20T06:31:52.019Z,97.60
2019-04-20T06:34:37.374Z,97.10
2019-04-20T06:47:10.352Z,95.10
2019-04-20T06:52:39.784Z,95.10
2019-04-20T06:55:09.716Z,95.10
2019-04-20T06:57:46.381Z,94.00
2019-04-20T07:00:20.845Z,93.90
2019-04-20T07:02:48.346Z,93.70
2019-04-20T07:05:21.095Z,93.40
2019-04-20T07:07:54.621Z,93.50
2019-04-20T07:10:25.284Z,92.90
2019-04-20T07:12:46.643Z,93.20
2019-04-20T07:15:19.016Z,92.90
2019-04-20T07:17:57.034Z,92.70
2019-04-20T07:20:51.659Z,90.60
2019-04-20T07:23:23.813Z,90.30
2019-04-20T07:26:03.972Z,90.10
2019-04-20T07:28:21.854Z,89.50
2019-04-20T07:30:46.372Z,87.50
2019-04-20T07:33:19.454Z,86.50
2019-04-20T07:35:47.481Z,85.90
2019-04-20T07:38:32.948Z,84.00
2019-04-20T07:40:44.465Z,82.60
2019-04-20T07:43:16.397Z,81.10
2019-04-20T07:45:51.687Z,79.10
2019-04-20T07:48:23.009Z,76.30
2019-04-20T07:50:44.846Z,74.00
2019-04-20T07:53:21.498Z,71.80
2019-04-20T07:55:53.993Z,68.90
2019-04-20T07:58:17.187Z,67.90
2019-04-20T08:01:09.073Z,66.90
2019-04-20T08:03:43.966Z,66.10
2019-04-20T08:06:14.521Z,60.30
2019-04-20T08:08:55.698Z,60.90
2019-04-20T08:11:22.343Z,60.40
2019-04-20T08:13:58.927Z,59.80
2019-04-20T08:16:40.856Z,59.60
2019-04-20T08:19:01.251Z,59.00
2019-04-20T08:21:39.136Z,57.20
2019-04-20T08:24:02.423Z,55.70
2019-04-20T08:26:21.645Z,56.40
2019-04-20T08:28:55.248Z,56.10
2019-04-20T08:31:46.216Z,54.10
2019-04-20T08:34:27.927Z,53.60
2019-04-20T08:36:59.877Z,54.00
2019-04-20T08:39:38.123Z,53.70
2019-04-20T08:42:03.045Z,53.20
2019-04-20T08:47:21.138Z,53.40
2019-04-20T08:49:35.225Z,51.90
2019-04-20T08:52:12.625Z,50.50
2019-04-20T08:54:26.388Z,50.80
2019-04-20T08:56:49.883Z,50.70
2019-04-20T08:59:13.848Z,50.90
2019-04-20T09:01:44.483Z,49.90
2019-04-20T09:04:20.764Z,47.20
2019-04-20T09:06:58.800Z,47.70
2019-04-20T09:09:44.331Z,46.70
2019-04-20T09:12:05.857Z,43.00
2019-04-20T09:14:21.283Z,41.60
2019-04-20T09:17:03.739Z,41.50
2019-04-20T09:19:36.706Z,39.00
2019-04-20T09:22:28.367Z,40.10
2019-04-20T09:25:26.568Z,39.50
2019-04-20T09:27:29.477Z,39.30
2019-04-20T09:30:05.789Z,39.10
2019-04-20T09:32:42.682Z,38.90
2019-04-20T09:35:13.575Z,39.50
2019-04-20T09:38:03.169Z,40.20
2019-04-20T09:40:32.188Z,39.90
2019-04-20T09:42:56.100Z,38.80
2019-04-20T09:45:37.276Z,40.20
2019-04-20T09:48:02.118Z,39.90
2019-04-20T09:50:56.525Z,38.50
2019-04-20T09:53:20.944Z,38.10
2019-04-20T09:55:53.403Z,38.60
2019-04-20T09:58:15.747Z,37.50
2019-04-20T10:00:59.476Z,36.40
2019-04-20T10:03:16.390Z,36.40
2019-04-20T10:05:45.764Z,36.10
2019-04-20T10:08:15.543Z,35.30
2019-04-20T10:10:47.183Z,35.60
2019-04-20T10:13:15.627Z,34.80
2019-04-20T10:15:45.928Z,35.40
2019-04-20T10:18:15.256Z,34.80
2019-04-20T10:20:45.339Z,35.20
2019-04-20T10:23:14.787Z,35.60
2019-04-20T10:25:44.719Z,34.80
2019-04-20T10:28:13.983Z,34.60
2019-04-20T10:30:44.324Z,35.60
2019-04-20T10:33:13.701Z,34.10
2019-04-20T10:35:43.564Z,33.80
2019-04-20T10:38:21.444Z,33.80
2019-04-20T10:40:59.796Z,32.90
2019-04-20T10:43:21.883Z,32.20
2019-04-20T10:45:51.306Z,33.60
2019-04-20T10:48:21.411Z,33.20
2019-04-20T10:50:50.711Z,33.00
2019-04-20T10:53:19.927Z,34.10
2019-04-20T10:55:49.516Z,32.30
2019-04-20T10:58:19.719Z,32.00
2019-04-20T11:00:50.117Z,31.40
2019-04-20T11:03:19.977Z,32.00
2019-04-20T11:05:50.834Z,32.60
2019-04-20T11:08:20.428Z,32.00
2019-04-20T11:11:01.278Z,31.60
2019-04-20T11:13:21.450Z,33.10
2019-04-20T11:15:50.751Z,32.60
2019-04-20T11:18:19.996Z,30.90
2019-04-20T11:20:49.238Z,31.10
2019-04-20T11:23:18.456Z,31.60
2019-04-20T11:25:48.343Z,32.60
2019-04-20T11:28:17.692Z,31.80
2019-04-20T11:30:48.068Z,31.30
2019-04-20T11:33:18.230Z,31.20
2019-04-20T11:35:48.590Z,31.60
2019-04-20T11:38:19.633Z,31.60
2019-04-20T11:41:02.714Z,33.20
2019-04-20T11:43:19.951Z,32.90
2019-04-20T11:45:49.151Z,32.20
2019-04-20T11:48:19.144Z,33.20
2019-04-20T11:50:49.560Z,32.40
2019-04-20T11:53:19.378Z,31.70
2019-04-20T11:55:48.876Z,31.80
2019-04-20T11:58:18.107Z,30.00
2019-04-20T12:00:56.058Z,31.10
2019-04-20T12:03:31.589Z,31.00
2019-04-20T12:05:57.825Z,29.60
2019-04-20T12:08:27.071Z,30.90
2019-04-20T12:10:59.653Z,31.10
2019-04-20T12:13:27.211Z,31.10
2019-04-20T12:15:56.437Z,30.70
2019-04-20T12:18:25.812Z,30.60
2019-04-20T12:20:55.032Z,30.20
2019-04-20T12:23:24.499Z,30.20
2019-04-20T12:25:54.398Z,30.40
2019-04-20T12:28:23.663Z,31.60
2019-04-20T12:30:58.386Z,31.50
2019-04-20T12:33:24.347Z,28.20
2019-04-20T12:35:54.186Z,27.10
2019-04-20T12:38:23.563Z,27.50
2019-04-20T12:40:52.782Z,26.40
2019-04-20T12:43:23.523Z,26.40
2019-04-20T12:45:53.827Z,27.20
2019-04-20T12:48:23.885Z,27.00
2019-04-20T12:50:53.350Z,27.30
2019-04-20T12:53:22.504Z,27.90
2019-04-20T12:55:52.683Z,27.30
2019-04-20T12:58:22.826Z,25.10
2019-04-20T13:00:54.342Z,24.30
2019-04-20T13:03:23.662Z,24.40
2019-04-20T13:05:54.102Z,25.90
2019-04-20T13:08:33.275Z,25.30
2019-04-20T13:11:00.409Z,25.30
2019-04-20T13:13:34.851Z,25.10
2019-04-20T13:16:12.362Z,25.00
2019-04-20T13:18:53.058Z,24.40
2019-04-20T13:21:22.965Z,25.10
2019-04-20T13:23:53.168Z,24.90
2019-04-20T13:26:22.730Z,24.90
2019-04-20T13:28:52.943Z,25.40
2019-04-20T13:31:22.498Z,23.70
2019-04-20T13:33:51.759Z,24.80
2019-04-20T13:36:22.043Z,25.20
2019-04-20T13:38:52.253Z,25.70
2019-04-20T13:41:22.014Z,26.20
2019-04-20T13:43:54.101Z,25.70
2019-04-20T13:46:22.900Z,26.20
2019-04-20T13:48:53.185Z,27.10
2019-04-20T13:51:23.011Z,26.50
2019-04-20T13:53:53.301Z,27.40
2019-04-20T13:56:24.033Z,27.60
2019-04-20T13:59:01.805Z,27.50
2019-04-20T14:01:57.079Z,28.50
2019-04-20T14:04:32.822Z,28.50
2019-04-20T14:07:03.373Z,27.90
2019-04-20T14:09:33.301Z,27.40
2019-04-20T14:12:14.167Z,25.90
2019-04-20T14:14:33.453Z,27.00
2019-04-20T14:17:03.274Z,27.70
2019-04-20T14:19:32.551Z,28.00
2019-04-20T14:22:02.167Z,28.20
2019-04-20T14:24:33.049Z,27.40
2019-04-20T14:27:03.344Z,26.90
2019-04-20T14:29:32.840Z,27.10
2019-04-20T14:32:03.654Z,25.60
2019-04-20T14:34:33.160Z,26.50
2019-04-20T14:37:02.601Z,26.80
2019-04-20T14:39:32.321Z,26.10
2019-04-20T14:42:02.424Z,26.40
2019-04-20T14:44:32.005Z,26.00
2019-04-20T14:47:01.351Z,25.50
2019-04-20T14:49:30.633Z,25.80
2019-04-20T14:52:01.165Z,25.10
2019-04-20T14:54:31.846Z,25.50
2019-04-20T14:57:01.473Z,24.90
2019-04-20T14:59:35.884Z,24.50
2019-04-20T15:02:12.576Z,24.50
2019-04-20T15:04:43.265Z,24.70
2019-04-20T15:07:12.978Z,24.80
2019-04-20T15:09:42.837Z,24.20
2019-04-20T15:12:12.937Z,23.70
2019-04-20T15:14:42.764Z,23.10
2019-04-20T15:17:17.142Z,23.30
2019-04-20T15:20:11.859Z,23.50
2019-04-20T15:22:45.417Z,23.60
2019-04-20T15:25:15.799Z,25.20
2019-04-20T15:27:46.306Z,25.10
2019-04-20T15:30:16.306Z,24.90
2019-04-20T15:32:45.503Z,26.30
2019-04-20T15:35:17.816Z,27.00
2019-04-20T15:37:46.942Z,26.70
2019-04-20T15:40:17.285Z,27.10
2019-04-20T15:42:54.842Z,28.20
2019-04-20T15:45:19.057Z,28.00
2019-04-20T15:47:48.313Z,28.40
2019-04-20T15:50:18.051Z,28.00
2019-04-20T15:52:52.172Z,27.50
2019-04-20T15:55:24.591Z,28.10
2019-04-20T15:57:50.362Z,28.80
2019-04-20T16:00:20.401Z,28.90
2019-04-20T16:03:11.616Z,28.20
2019-04-20T16:05:56.684Z,27.40
2019-04-20T16:08:32.220Z,27.00
2019-04-20T16:11:04.610Z,26.90
2019-04-20T16:13:38.056Z,27.10
2019-04-20T16:16:03.850Z,27.80
2019-04-20T16:18:33.014Z,27.70
2019-04-20T16:21:09.232Z,27.50
2019-04-20T16:23:46.571Z,27.60
2019-04-20T16:26:51.491Z,28.00
2019-04-20T16:29:21.843Z,28.50
2019-04-20T16:31:52.145Z,28.70
2019-04-20T16:34:21.495Z,29.20
2019-04-20T16:36:54.341Z,28.90
2019-04-20T16:39:22.672Z,29.10
2019-04-20T16:41:51.968Z,29.50
2019-04-20T16:44:21.200Z,29.80
2019-04-20T16:46:50.439Z,29.80
2019-04-20T16:49:21.174Z,30.20
2019-04-20T16:51:50.480Z,30.20
2019-04-20T16:54:19.899Z,30.20
2019-04-20T16:56:49.151Z,30.70
2019-04-20T16:59:19.633Z,31.40
2019-04-20T17:01:50.540Z,32.30
2019-04-20T17:04:22.666Z,33.20
2019-04-20T17:07:16.576Z,33.20
2019-04-20T17:09:47.461Z,33.00
2019-04-20T17:12:17.753Z,33.70
2019-04-20T17:14:47.646Z,34.20
2019-04-20T17:17:17.743Z,34.50
2019-04-20T17:19:47.131Z,35.20
2019-04-20T17:22:17.291Z,35.50
2019-04-20T17:24:47.275Z,35.80
2019-04-20T17:27:44.926Z,35.90
2019-04-20T17:30:33.638Z,35.90
2019-04-20T17:33:06.287Z,35.70
2019-04-20T17:35:47.591Z,36.00
2019-04-20T17:38:06.899Z,36.10
2019-04-20T17:40:56.396Z,36.70
2019-04-20T17:43:18.006Z,37.60
2019-04-20T17:45:46.057Z,37.50
2019-04-20T17:48:23.248Z,38.80
2019-04-20T17:51:04.614Z,39.20
2019-04-20T17:53:44.622Z,39.50
2019-04-20T17:56:09.177Z,40.60
2019-04-20T17:58:40.064Z,40.40
2019-04-20T18:01:42.314Z,40.60
2019-04-20T18:04:34.109Z,40.60
2019-04-20T18:06:47.932Z,40.60
2019-04-20T18:09:34.901Z,40.70
2019-04-20T18:11:46.765Z,41.10
2019-04-20T18:14:28.637Z,41.30
2019-04-20T18:17:05.883Z,41.50
2019-04-20T18:19:23.923Z,41.80
2019-04-20T18:21:54.064Z,42.00
2019-04-20T18:24:43.630Z,42.20
2019-04-20T18:27:15.937Z,42.60
2019-04-20T18:29:41.649Z,43.10
2019-04-20T18:32:15.624Z,43.50
2019-04-20T18:34:55.501Z,44.40
2019-04-20T18:37:23.937Z,44.40
2019-04-20T18:39:59.655Z,45.00
2019-04-20T18:42:30.683Z,46.00
2019-04-20T18:45:14.223Z,46.60
2019-04-20T18:47:45.795Z,47.00
2019-04-20T18:50:07.717Z,47.50
2019-04-20T18:52:27.663Z,47.70
2019-04-20T18:54:57.560Z,48.40
2019-04-20T18:57:30.772Z,47.70
2019-04-20T18:59:59.174Z,48.00
2019-04-20T19:02:33.584Z,48.10
2019-04-20T19:05:01.369Z,48.40
2019-04-20T19:07:34.867Z,48.40
2019-04-20T19:10:13.897Z,48.30
2019-04-20T19:12:44.215Z,48.40
2019-04-20T19:15:38.596Z,48.60
2019-04-20T19:18:04.321Z,49.20
2019-04-20T19:20:27.577Z,49.40
2019-04-20T19:22:56.084Z,49.70
2019-04-20T19:25:28.178Z,50.00
2019-04-20T19:27:58.391Z,50.20
2019-04-20T19:30:35.427Z,50.60
2019-04-20T19:33:14.592Z,50.60
2019-04-20T19:35:40.886Z,50.70
2019-04-20T19:38:09.404Z,50.70
2019-04-20T19:40:42.870Z,50.80
2019-04-20T19:43:14.649Z,51.00
2019-04-20T19:45:55.852Z,51.80
2019-04-20T19:48:17.693Z,51.40
2019-04-20T19:50:58.925Z,51.60
2019-04-20T19:53:26.658Z,51.70
2019-04-20T19:55:47.839Z,51.60
2019-04-20T19:58:22.350Z,51.60
2019-04-20T20:00:59.454Z,51.70
2019-04-20T20:03:27.974Z,51.60
2019-04-20T20:05:58.283Z,51.80
2019-04-20T20:08:31.599Z,52.00
2019-04-20T20:11:01.888Z,52.20
2019-04-20T20:13:34.600Z,52.10
2019-04-20T20:16:09.690Z,52.10
2019-04-20T20:18:45.254Z,52.10
2019-04-20T20:21:19.383Z,52.10
2019-04-20T20:23:34.169Z,52.30
2019-04-20T20:26:07.072Z,52.40
2019-04-20T20:28:43.916Z,52.50
2019-04-20T20:31:18.916Z,52.60
2019-04-20T20:33:52.057Z,52.80
2019-04-20T20:36:12.758Z,53.10
2019-04-20T20:38:43.688Z,53.40
2019-04-20T20:41:17.951Z,53.80
2019-04-20T20:43:51.116Z,54.10
2019-04-20T20:46:21.624Z,54.00
2019-04-20T20:49:07.473Z,53.80
2019-04-20T20:51:34.628Z,54.10
2019-04-20T20:53:54.103Z,54.30
2019-04-20T20:56:22.122Z,54.70
2019-04-20T20:58:57.865Z,55.10
2019-04-20T21:01:22.177Z,55.40
2019-04-20T21:03:50.404Z,56.30
2019-04-20T21:06:20.088Z,56.00
2019-04-20T21:08:52.360Z,56.20
2019-04-20T21:11:23.539Z,56.20
2019-04-20T21:13:52.128Z,56.40
2019-04-20T21:16:26.677Z,56.80
2019-04-20T21:19:12.038Z,57.50
2019-04-20T21:21:37.097Z,58.00
2019-04-20T21:24:05.144Z,58.70
2019-04-20T21:26:35.686Z,59.10
2019-04-20T21:29:01.846Z,59.50
2019-04-20T21:31:32.651Z,60.40
2019-04-20T21:34:06.840Z,61.40
2019-04-20T21:36:33.516Z,61.70
2019-04-20T21:39:09.707Z,62.50
2019-04-20T21:41:41.758Z,63.10
2019-04-20T21:44:16.516Z,63.60
2019-04-20T21:46:44.214Z,64.20
2019-04-20T21:49:23.766Z,64.80
2019-04-20T21:51:46.583Z,65.40
2019-04-20T21:54:12.033Z,66.10
2019-04-20T21:56:49.869Z,66.80
2019-04-20T21:59:21.334Z,67.20
2019-04-20T22:01:56.373Z,68.50
2019-04-20T22:04:14.424Z,69.00
2019-04-20T22:06:44.618Z,70.00
2019-04-20T22:09:14.915Z,70.70
2019-04-20T22:11:44.266Z,71.80
2019-04-20T22:14:18.607Z,73.40
2019-04-20T22:16:49.559Z,74.40
2019-04-20T22:19:29.885Z,75.60
2019-04-20T22:22:00.038Z,77.00
2019-04-20T22:24:36.903Z,78.30
2019-04-20T22:27:00.118Z,79.20
2019-04-20T22:29:18.680Z,80.00
2019-04-20T22:31:53.470Z,80.70
2019-04-20T22:34:21.399Z,81.10
2019-04-20T22:36:50.575Z,81.30
2019-04-20T22:39:32.203Z,82.10
2019-04-20T22:42:00.198Z,83.50
2019-04-20T22:44:28.336Z,84.90
2019-04-20T22:46:58.356Z,85.40
2019-04-20T22:49:45.474Z,85.60
2019-04-20T22:52:11.988Z,86.40
2019-04-20T22:54:44.620Z,87.10
2019-04-20T22:57:11.913Z,88.50
2019-04-20T22:59:44.682Z,89.70
2019-04-20T23:02:03.884Z,90.00
2019-04-20T23:04:33.127Z,90.30
2019-04-20T23:07:03.128Z,90.90
2019-04-20T23:09:38.000Z,91.10
2019-04-20T23:12:09.638Z,91.50
2019-04-20T23:14:34.341Z,91.90
2019-04-20T23:17:04.275Z,92.20
2019-04-20T23:19:41.625Z,92.50
2019-04-20T23:22:08.159Z,92.70
2019-04-20T23:24:35.405Z,92.80
2019-04-20T23:27:11.918Z,92.60
2019-04-20T23:29:38.368Z,92.80
2019-04-20T23:32:09.914Z,93.10
2019-04-20T23:34:38.901Z,93.30
2019-04-20T23:37:16.166Z,93.80
2019-04-20T23:39:41.502Z,94.30
2019-04-20T23:42:13.035Z,94.70
2019-04-20T23:44:52.079Z,94.70
2019-04-20T23:47:34.202Z,94.60
2019-04-20T23:50:20.476Z,94.50
2019-04-20T23:52:59.733Z,94.70
2019-04-20T23:55:12.034Z,94.70
2019-04-20T23:57:39.720Z,94.60
